Time;durP1;ratioP1;P1;durP2;ratioP2;P2;SDS_P1;SDS_P2;PMS_P1;PMS_P2;Temp;Humidity;BMP_temperature;BMP_pressure;BME280_temperature;BME280_humidity;BME280_pressure;Samples;Min_cycle;Max_cycle;Signal;HPM_P1;HPM_P2
2021/12/04 00:00:23;;;;;;;29.17;17.05;;;4.50;99.90;;;;;;5001753;28;20091;-77
2021/12/04 00:02:53;;;;;;;37.35;20.10;;;4.50;99.90;;;;;;5033452;28;20043;-77
2021/12/04 00:05:20;;;;;;;36.13;20.25;;;4.40;99.90;;;;;;5009397;28;20041;-77
2021/12/04 00:07:46;;;;;;;34.53;20.15;;;4.50;99.90;;;;;;4992489;28;20412;-77
2021/12/04 00:10:21;;;;;;;46.65;23.42;;;4.60;99.90;;;;;;5010343;28;20055;-77
2021/12/04 00:12:47;;;;;;;40.70;20.58;;;4.60;99.90;;;;;;5053972;28;20043;-77
2021/12/04 00:15:13;;;;;;;42.40;21.88;;;4.40;99.90;;;;;;5082678;28;20103;-77
2021/12/04 00:17:39;;;;;;;45.05;23.52;;;4.50;99.90;;;;;;5032555;28;20067;-77
2021/12/04 00:20:07;;;;;;;38.67;19.08;;;4.40;99.90;;;;;;5030028;28;20025;-77
2021/12/04 00:22:33;;;;;;;43.15;22.95;;;4.40;99.90;;;;;;5087128;28;20054;-77
2021/12/04 00:24:58;;;;;;;45.15;23.42;;;4.70;99.90;;;;;;5049809;28;20056;-77
2021/12/04 00:27:24;;;;;;;45.17;23.75;;;4.50;99.90;;;;;;5047763;28;20069;-77
2021/12/04 00:29:50;;;;;;;40.20;21.95;;;4.70;99.90;;;;;;5060317;28;20124;-77
2021/12/04 00:32:30;;;;;;;41.20;20.73;;;4.40;99.90;;;;;;5058487;28;20048;-77
2021/12/04 00:35:08;;;;;;;42.60;20.33;;;4.40;99.90;;;;;;5051969;28;20110;-77
2021/12/04 00:51:15;;;;;;;41.22;20.05;;;4.90;99.90;;;;;;5012407;28;20076;-78
2021/12/04 00:53:41;;;;;;;43.95;23.23;;;4.50;99.90;;;;;;5015450;28;20054;-78
2021/12/04 00:56:07;;;;;;;45.15;21.88;;;4.60;99.90;;;;;;5025087;28;20076;-78
2021/12/04 00:58:33;;;;;;;40.08;20.95;;;4.40;99.90;;;;;;5042930;28;20047;-78
2021/12/04 01:00:58;;;;;;;46.80;22.67;;;4.40;99.90;;;;;;5010821;28;20033;-77
2021/12/04 01:03:25;;;;;;;43.42;18.92;;;4.40;99.90;;;;;;5007451;28;20043;-77
2021/12/04 01:05:51;;;;;;;42.70;21.50;;;4.90;99.90;;;;;;5012085;28;20079;-77
2021/12/04 01:08:17;;;;;;;46.13;20.80;;;4.40;99.90;;;;;;5015510;28;20045;-78
2021/12/04 01:10:43;;;;;;;50.08;21.30;;;4.60;99.90;;;;;;5069074;28;20091;-78
2021/12/04 01:13:12;;;;;;;52.38;23.40;;;4.40;99.90;;;;;;5029439;28;20062;-78
2021/12/04 01:15:39;;;;;;;44.95;21.20;;;4.40;99.90;;;;;;5049025;28;20052;-78
2021/12/04 01:18:05;;;;;;;42.30;19.30;;;4.40;99.90;;;;;;4998022;28;20037;-78
2021/12/04 01:20:30;;;;;;;43.45;20.05;;;4.40;99.90;;;;;;5029190;28;20044;-78
2021/12/04 01:22:56;;;;;;;43.25;19.95;;;4.50;99.90;;;;;;5064441;28;20041;-78
2021/12/04 01:25:22;;;;;;;44.53;19.75;;;4.40;99.90;;;;;;5016954;28;20242;-78
2021/12/04 01:27:48;;;;;;;40.78;18.48;;;4.40;99.90;;;;;;5014393;28;20041;-78
2021/12/04 01:30:14;;;;;;;41.30;18.83;;;4.40;99.90;;;;;;5063418;28;20044;-78
2021/12/04 01:32:39;;;;;;;48.25;19.83;;;4.40;99.90;;;;;;5047688;28;20049;-78
2021/12/04 01:35:06;;;;;;;52.45;22.83;;;5.20;99.90;;;;;;5020237;28;20178;-78
2021/12/04 01:37:31;;;;;;;36.78;18.48;;;4.40;99.90;;;;;;5048884;28;20072;-78
2021/12/04 01:39:57;;;;;;;43.25;20.02;;;4.40;99.90;;;;;;5014112;28;20660;-78
2021/12/04 01:42:23;;;;;;;38.13;17.45;;;5.30;99.90;;;;;;5030297;28;20060;-78
2021/12/04 01:44:50;;;;;;;36.58;17.55;;;4.60;99.90;;;;;;5057368;28;20062;-78
2021/12/04 01:47:20;;;;;;;41.20;19.50;;;4.40;99.90;;;;;;5026450;28;20048;-78
2021/12/04 01:49:48;;;;;;;48.17;21.10;;;4.40;99.90;;;;;;5044742;28;20045;-78
2021/12/04 01:52:17;;;;;;;40.83;20.17;;;4.40;99.90;;;;;;5043597;28;20501;-78
2021/12/04 01:54:42;;;;;;;46.67;21.05;;;4.40;99.90;;;;;;5028117;28;20057;-78
2021/12/04 01:57:08;;;;;;;39.50;17.83;;;4.40;99.90;;;;;;5014541;28;20035;-78
2021/12/04 01:59:34;;;;;;;43.13;20.95;;;4.40;99.90;;;;;;5047369;28;20165;-78
2021/12/04 02:02:02;;;;;;;55.85;23.25;;;4.40;99.90;;;;;;5030390;28;20047;-78
2021/12/04 02:04:28;;;;;;;46.67;20.95;;;4.40;99.90;;;;;;4990321;28;20048;-78
2021/12/04 02:06:54;;;;;;;38.53;16.92;;;4.90;99.90;;;;;;5049589;28;20040;-79
2021/12/04 02:09:20;;;;;;;37.92;16.30;;;4.40;99.90;;;;;;5011622;28;20127;-78
2021/12/04 02:11:45;;;;;;;31.90;17.17;;;4.40;99.90;;;;;;5009418;28;20442;-78
2021/12/04 02:14:13;;;;;;;33.28;17.60;;;4.50;99.90;;;;;;5001993;28;20386;-78
2021/12/04 02:16:38;;;;;;;30.67;16.38;;;4.40;99.90;;;;;;5040060;28;20045;-78
2021/12/04 02:19:04;;;;;;;36.28;17.52;;;4.40;99.90;;;;;;5008439;28;20059;-78
2021/12/04 02:21:31;;;;;;;32.67;16.73;;;5.20;99.90;;;;;;5013098;28;20064;-78
2021/12/04 02:23:57;;;;;;;30.40;15.40;;;4.40;99.90;;;;;;5017437;28;20408;-78
2021/12/04 02:26:23;;;;;;;31.30;16.42;;;4.40;99.90;;;;;;5044004;28;20102;-78
2021/12/04 02:28:49;;;;;;;32.40;15.93;;;4.50;99.90;;;;;;5030154;28;20788;-78
2021/12/04 02:31:15;;;;;;;33.45;16.77;;;4.20;99.90;;;;;;5029504;28;20045;-78
2021/12/04 02:33:40;;;;;;;27.73;14.68;;;4.40;99.90;;;;;;5014456;28;20088;-78
2021/12/04 02:36:07;;;;;;;32.95;17.90;;;4.40;99.90;;;;;;5027745;28;20041;-78
2021/12/04 02:38:34;;;;;;;32.40;16.70;;;4.40;99.90;;;;;;5011606;28;20489;-78
2021/12/04 02:41:01;;;;;;;31.90;17.88;;;4.80;99.90;;;;;;5070788;28;20044;-78
2021/12/04 02:43:31;;;;;;;33.67;16.80;;;4.40;99.90;;;;;;5007497;28;20650;-78
2021/12/04 02:45:57;;;;;;;34.33;18.55;;;5.10;99.90;;;;;;5045280;28;20053;-78
2021/12/04 02:48:22;;;;;;;31.98;16.77;;;4.40;99.90;;;;;;4994632;28;20136;-78
2021/12/04 02:50:48;;;;;;;30.35;17.80;;;4.40;99.90;;;;;;5043296;28;20606;-78
2021/12/04 02:53:15;;;;;;;35.28;17.10;;;4.50;99.90;;;;;;4992249;28;20076;-78
2021/12/04 02:55:42;;;;;;;32.92;17.63;;;4.40;99.90;;;;;;5025569;28;20042;-78
2021/12/04 02:58:08;;;;;;;32.05;17.67;;;4.20;99.90;;;;;;5057438;28;20171;-78
2021/12/04 03:00:34;;;;;;;32.00;16.73;;;4.30;99.90;;;;;;5010918;28;20136;-78
2021/12/04 03:03:00;;;;;;;29.73;16.13;;;4.40;99.90;;;;;;5018923;28;20056;-78
2021/12/04 03:05:27;;;;;;;27.20;16.30;;;4.40;99.90;;;;;;5062851;28;20088;-78
2021/12/04 03:07:55;;;;;;;28.40;16.80;;;4.40;99.90;;;;;;5068085;28;20609;-78
2021/12/04 03:10:22;;;;;;;30.20;18.65;;;5.10;99.90;;;;;;5049572;28;20041;-78
2021/12/04 03:12:48;;;;;;;23.98;14.75;;;4.40;99.90;;;;;;5058409;28;20045;-78
2021/12/04 03:15:15;;;;;;;25.50;16.35;;;4.40;99.90;;;;;;5045913;28;20512;-78
2021/12/04 03:17:41;;;;;;;26.92;16.17;;;4.40;99.90;;;;;;5056750;28;20378;-78
2021/12/04 03:20:08;;;;;;;25.80;14.80;;;4.60;99.90;;;;;;5042545;28;20033;-78
2021/12/04 03:22:34;;;;;;;30.70;17.05;;;4.40;99.90;;;;;;5044777;28;20127;-78
2021/12/04 03:25:00;;;;;;;25.98;14.90;;;4.70;99.90;;;;;;5026030;28;20358;-78
2021/12/04 03:27:29;;;;;;;22.23;13.77;;;4.40;99.90;;;;;;5067546;28;20488;-78
2021/12/04 03:30:07;;;;;;;22.15;12.52;;;4.40;99.90;;;;;;5013586;28;20407;-78
2021/12/04 03:42:53;;;;;;;22.00;13.65;;;4.20;99.90;;;;;;5039917;28;20089;-78
2021/12/04 03:45:19;;;;;;;23.90;14.93;;;4.50;99.90;;;;;;5022694;28;20049;-78
2021/12/04 03:47:48;;;;;;;20.27;13.93;;;4.30;99.90;;;;;;5013956;28;20123;-78
2021/12/04 03:50:16;;;;;;;27.58;14.85;;;5.10;99.90;;;;;;5026207;28;20041;-78
2021/12/04 03:52:42;;;;;;;19.45;12.10;;;4.30;99.90;;;;;;5015999;28;20040;-78
2021/12/04 03:55:09;;;;;;;21.48;12.48;;;3.90;99.90;;;;;;5022201;28;20028;-78
2021/12/04 03:57:35;;;;;;;23.75;11.88;;;4.30;99.90;;;;;;5025344;28;20029;-78
2021/12/04 04:00:04;;;;;;;22.35;12.88;;;4.30;99.90;;;;;;5011336;28;20900;-78
2021/12/04 04:02:29;;;;;;;19.98;11.32;;;4.30;99.90;;;;;;5024975;28;20056;-78
2021/12/04 04:04:55;;;;;;;25.75;13.77;;;4.80;99.90;;;;;;5028859;28;20032;-78
2021/12/04 04:07:22;;;;;;;23.33;13.82;;;4.60;99.90;;;;;;5039176;28;20176;-78
2021/12/04 04:09:47;;;;;;;21.33;11.48;;;4.10;99.90;;;;;;5025254;28;20041;-78
2021/12/04 04:12:13;;;;;;;24.27;12.30;;;4.30;99.90;;;;;;5008199;28;20616;-78
2021/12/04 04:14:39;;;;;;;20.52;12.30;;;4.30;99.90;;;;;;4977663;28;20090;-78
2021/12/04 04:17:05;;;;;;;23.13;13.60;;;4.90;99.90;;;;;;5065633;28;20044;-78
2021/12/04 04:19:31;;;;;;;21.98;11.43;;;4.30;99.90;;;;;;5027848;28;20588;-78
2021/12/04 04:21:58;;;;;;;23.08;11.82;;;4.40;99.90;;;;;;5022863;28;20032;-78
2021/12/04 04:24:26;;;;;;;22.35;12.10;;;4.20;99.90;;;;;;4992716;28;20033;-78
2021/12/04 04:26:53;;;;;;;25.27;12.18;;;4.30;99.90;;;;;;5016129;28;20082;-78
2021/12/04 04:29:18;;;;;;;26.38;13.98;;;4.30;99.90;;;;;;5016011;28;20044;-78
2021/12/04 04:31:52;;;;;;;23.00;12.55;;;3.90;99.90;;;;;;5030260;28;20504;-78
2021/12/04 04:34:25;;;;;;;22.33;11.80;;;4.20;99.90;;;;;;5005953;28;20033;-78
2021/12/04 05:01:21;;;;;;;29.85;13.68;;;4.30;99.90;;;;;;5026679;28;20095;-78
2021/12/04 05:14:33;;;;;;;28.35;14.45;;;4.30;99.90;;;;;;5049676;28;20049;-78
2021/12/04 05:17:06;;;;;;;25.30;12.20;;;4.30;99.90;;;;;;5030722;28;20537;-78
2021/12/04 05:19:42;;;;;;;24.15;12.43;;;4.20;99.90;;;;;;5012123;28;20648;-78
2021/12/04 05:22:10;;;;;;;25.75;12.88;;;4.30;99.90;;;;;;5045222;28;20133;-78
2021/12/04 05:24:35;;;;;;;34.20;15.13;;;4.30;99.90;;;;;;5048677;28;20052;-79
2021/12/04 05:27:01;;;;;;;34.28;14.90;;;4.00;99.90;;;;;;5047856;28;20037;-79
2021/12/04 05:29:27;;;;;;;30.30;13.38;;;4.30;99.90;;;;;;5026829;28;20128;-78
2021/12/04 05:31:53;;;;;;;34.60;14.18;;;4.70;99.90;;;;;;5046020;28;20049;-78
2021/12/04 05:34:19;;;;;;;26.08;14.50;;;4.30;99.90;;;;;;5073651;28;20045;-78
2021/12/04 05:36:45;;;;;;;24.77;12.70;;;3.90;99.90;;;;;;5042737;28;20430;-78
2021/12/04 05:39:11;;;;;;;29.23;13.73;;;4.20;99.90;;;;;;5016308;28;20037;-78
2021/12/04 05:41:38;;;;;;;33.08;14.98;;;4.30;99.90;;;;;;5029280;28;20033;-78
2021/12/04 05:44:06;;;;;;;27.45;13.15;;;3.90;99.90;;;;;;5054532;28;20048;-78
2021/12/04 05:46:38;;;;;;;30.80;13.05;;;4.20;99.90;;;;;;5049741;28;20139;-78
2021/12/04 05:49:12;;;;;;;31.30;14.48;;;5.00;99.90;;;;;;5015895;28;20059;-79
2021/12/04 05:56:58;;;;;;;31.40;14.65;;;4.30;99.90;;;;;;5068214;28;20040;-77
2021/12/04 05:59:24;;;;;;;26.10;13.68;;;5.30;99.90;;;;;;5047316;28;20040;-78
2021/12/04 06:01:50;;;;;;;36.33;13.60;;;4.50;99.90;;;;;;5052585;28;20033;-78
2021/12/04 06:04:15;;;;;;;35.38;14.60;;;5.10;99.90;;;;;;5054273;28;20044;-79
2021/12/04 06:06:43;;;;;;;30.60;15.57;;;4.30;99.90;;;;;;5049739;28;20516;-78
2021/12/04 06:09:10;;;;;;;31.23;14.95;;;4.10;99.90;;;;;;5081629;28;20377;-78
2021/12/04 06:11:35;;;;;;;37.08;14.73;;;5.10;99.90;;;;;;5048489;28;20092;-78
2021/12/04 06:14:02;;;;;;;33.97;13.25;;;4.20;99.90;;;;;;5095941;28;20407;-78
2021/12/04 06:16:27;;;;;;;44.90;16.02;;;4.90;99.90;;;;;;5055028;28;20032;-78
2021/12/04 06:18:54;;;;;;;36.50;14.68;;;4.50;99.90;;;;;;5018565;28;20046;-75
2021/12/04 06:24:06;;;;;;;29.25;13.68;;;4.40;99.90;;;;;;5068925;28;20056;-76
2021/12/04 06:26:33;;;;;;;40.90;17.25;;;4.30;99.90;;;;;;5022542;28;20047;-77
2021/12/04 06:28:59;;;;;;;42.75;16.95;;;4.20;99.90;;;;;;5040014;28;20044;-77
2021/12/04 06:31:25;;;;;;;28.90;13.60;;;3.90;99.90;;;;;;5065322;28;20390;-76
2021/12/04 06:33:52;;;;;;;33.17;15.20;;;3.80;99.90;;;;;;5081553;28;20030;-76
2021/12/04 06:36:18;;;;;;;44.83;18.77;;;4.90;99.90;;;;;;5065596;28;20029;-76
2021/12/04 06:38:44;;;;;;;41.75;18.02;;;4.30;99.90;;;;;;5049160;28;20139;-77
2021/12/04 06:41:11;;;;;;;41.10;16.77;;;4.20;99.90;;;;;;5020337;28;20051;-76
2021/12/04 06:43:38;;;;;;;38.85;17.20;;;3.80;99.90;;;;;;5066901;28;20060;-76
2021/12/04 06:46:05;;;;;;;38.55;17.00;;;4.80;99.90;;;;;;5061959;28;20046;-77
2021/12/04 06:48:46;;;;;;;35.63;17.45;;;4.20;99.90;;;;;;5069377;28;20052;-77
2021/12/04 06:53:48;;;;;;;38.55;17.52;;;4.20;99.90;;;;;;5061940;28;20040;-77
2021/12/04 06:56:16;;;;;;;39.15;17.00;;;4.20;99.90;;;;;;5065252;28;20071;-77
2021/12/04 06:58:41;;;;;;;34.13;15.82;;;4.20;99.90;;;;;;5051646;28;20485;-77
2021/12/04 07:01:10;;;;;;;28.20;13.15;;;4.20;99.90;;;;;;5063483;28;20041;-77
2021/12/04 07:03:37;;;;;;;31.35;15.68;;;4.70;99.90;;;;;;5045078;28;20052;-78
2021/12/04 07:06:03;;;;;;;39.60;17.42;;;4.20;99.90;;;;;;5063901;28;20045;-77
2021/12/04 07:08:29;;;;;;;32.33;16.10;;;4.50;99.90;;;;;;5046644;28;20048;-77
2021/12/04 07:10:55;;;;;;;36.13;16.50;;;4.20;99.90;;;;;;5082384;28;20036;-77
2021/12/04 07:13:21;;;;;;;42.78;16.85;;;4.10;99.90;;;;;;5078305;28;20033;-77
2021/12/04 07:15:47;;;;;;;32.50;14.20;;;4.40;99.90;;;;;;5072666;28;20040;-77
2021/12/04 07:18:13;;;;;;;35.15;16.05;;;4.20;99.90;;;;;;5047273;28;20479;-78
2021/12/04 07:20:39;;;;;;;45.03;18.25;;;3.80;99.90;;;;;;5050886;28;20033;-77
2021/12/04 07:23:04;;;;;;;37.75;16.35;;;4.60;99.90;;;;;;5033020;28;20064;-77
2021/12/04 07:25:31;;;;;;;28.15;15.77;;;4.30;99.90;;;;;;5050019;28;20041;-77
2021/12/04 07:27:57;;;;;;;38.58;17.48;;;4.10;99.90;;;;;;5040735;28;20076;-77
2021/12/04 07:30:24;;;;;;;40.10;17.75;;;4.90;99.90;;;;;;5064895;28;20080;-77
2021/12/04 07:32:51;;;;;;;32.95;14.77;;;4.10;99.90;;;;;;5029923;28;20079;-77
2021/12/04 07:35:16;;;;;;;38.33;16.00;;;4.10;99.90;;;;;;5076927;28;20029;-77
2021/12/04 07:37:43;;;;;;;34.47;16.67;;;4.10;99.90;;;;;;5050657;28;20045;-77
2021/12/04 07:40:10;;;;;;;39.50;17.15;;;4.20;99.90;;;;;;5050585;28;20087;-77
2021/12/04 07:42:35;;;;;;;34.30;15.98;;;4.20;99.90;;;;;;5077996;28;20063;-77
2021/12/04 07:45:01;;;;;;;39.55;15.68;;;3.80;99.90;;;;;;5050092;28;20128;-77
2021/12/04 07:47:27;;;;;;;27.05;13.98;;;4.10;99.90;;;;;;5064102;28;20053;-77
2021/12/04 07:49:53;;;;;;;34.58;15.27;;;4.50;99.90;;;;;;5079458;28;20106;-78
2021/12/04 07:52:19;;;;;;;27.20;11.23;;;4.50;99.90;;;;;;5024300;28;20120;-77
2021/12/04 07:54:48;;;;;;;28.45;13.38;;;4.20;99.90;;;;;;5023647;28;20120;-77
2021/12/04 07:57:14;;;;;;;22.33;10.18;;;4.60;99.90;;;;;;5034120;28;20037;-78
2021/12/04 07:59:39;;;;;;;32.20;14.40;;;4.70;99.90;;;;;;5019446;28;20032;-78
2021/12/04 08:02:05;;;;;;;25.40;13.20;;;4.20;99.90;;;;;;5063961;28;20051;-78
2021/12/04 08:04:31;;;;;;;23.85;11.43;;;4.20;99.90;;;;;;5079372;28;20431;-78
2021/12/04 08:06:56;;;;;;;21.38;12.23;;;4.20;99.90;;;;;;5030207;28;20033;-78
2021/12/04 08:09:22;;;;;;;26.73;13.65;;;4.30;99.90;;;;;;5044530;28;20170;-78
2021/12/04 08:11:50;;;;;;;17.98;10.65;;;4.70;99.90;;;;;;5060124;28;20120;-76
2021/12/04 08:14:19;;;;;;;20.30;11.98;;;4.20;99.90;;;;;;5049221;28;20045;-78
2021/12/04 08:16:47;;;;;;;23.67;12.32;;;4.60;99.90;;;;;;5049096;28;20037;-78
2021/12/04 08:19:13;;;;;;;15.70;9.25;;;4.20;99.90;;;;;;5031602;28;20048;-78
2021/12/04 08:21:39;;;;;;;15.18;9.32;;;4.20;99.90;;;;;;5064084;28;20629;-78
2021/12/04 08:24:06;;;;;;;18.30;10.85;;;4.20;99.90;;;;;;5053434;28;20045;-78
2021/12/04 08:26:34;;;;;;;14.23;9.10;;;4.30;99.90;;;;;;5091629;28;20051;-78
2021/12/04 08:28:59;;;;;;;17.55;10.02;;;4.30;99.90;;;;;;5085104;28;20109;-78
2021/12/04 08:31:25;;;;;;;14.25;9.20;;;4.20;99.90;;;;;;5041419;28;20037;-78
2021/12/04 08:33:51;;;;;;;17.25;11.15;;;4.20;99.90;;;;;;5082003;28;20044;-78
2021/12/04 08:36:17;;;;;;;18.80;11.02;;;4.10;99.90;;;;;;5077011;28;20506;-78
2021/12/04 08:38:47;;;;;;;21.27;12.00;;;4.30;99.90;;;;;;5072154;28;20059;-78
2021/12/04 08:41:14;;;;;;;17.42;11.00;;;4.70;99.90;;;;;;5051614;28;20044;-78
2021/12/04 08:43:40;;;;;;;19.17;11.57;;;4.70;99.90;;;;;;5011245;28;20568;-78
2021/12/04 08:46:07;;;;;;;22.30;13.45;;;4.30;99.90;;;;;;5032622;28;20124;-78
2021/12/04 08:48:33;;;;;;;22.20;11.82;;;4.60;99.90;;;;;;5022947;28;20049;-78
2021/12/04 08:51:00;;;;;;;24.63;13.82;;;4.10;99.90;;;;;;5061919;28;20051;-78
2021/12/04 08:53:27;;;;;;;26.63;13.85;;;4.70;99.90;;;;;;5047516;28;20037;-78
2021/12/04 08:55:53;;;;;;;21.17;11.70;;;4.40;99.90;;;;;;5067410;28;20047;-78
2021/12/04 08:58:19;;;;;;;22.00;10.68;;;4.40;99.90;;;;;;5048038;28;20120;-78
2021/12/04 09:01:00;;;;;;;22.75;13.45;;;4.40;99.90;;;;;;5047010;28;20467;-78
2021/12/04 09:03:33;;;;;;;22.98;12.70;;;4.50;99.90;;;;;;5028911;28;20044;-78
2021/12/04 09:05:59;;;;;;;26.67;14.82;;;4.40;99.90;;;;;;5030066;28;20124;-78
2021/12/04 09:08:27;;;;;;;26.95;14.68;;;4.40;99.90;;;;;;5013873;28;20497;-78
2021/12/04 09:10:56;;;;;;;24.95;13.63;;;4.60;99.90;;;;;;5079717;28;20072;-78
2021/12/04 09:13:24;;;;;;;26.33;13.15;;;4.50;99.90;;;;;;5027292;28;20091;-78
2021/12/04 09:15:50;;;;;;;21.63;12.93;;;4.60;99.90;;;;;;5038851;28;20117;-78
2021/12/04 09:18:16;;;;;;;28.17;15.73;;;5.00;99.90;;;;;;5054715;28;20041;-78
2021/12/04 09:20:42;;;;;;;24.83;13.95;;;4.60;99.90;;;;;;5064157;28;20037;-79
2021/12/04 09:23:15;;;;;;;20.35;9.80;;;4.30;99.90;;;;;;5038477;28;20639;-78
2021/12/04 09:25:44;;;;;;;18.83;11.43;;;4.70;99.90;;;;;;5029489;28;20053;-78
2021/12/04 09:28:20;;;;;;;24.45;13.57;;;4.60;99.90;;;;;;5078606;28;20044;-78
2021/12/04 10:04:20;;;;;;;19.85;10.80;;;5.00;99.90;;;;;;5060944;28;20127;-78
2021/12/04 10:21:30;;;;;;;20.00;11.18;;;5.00;99.90;;;;;;5047471;28;20056;-78
2021/12/04 10:23:45;;;;;;;19.98;11.68;;;5.00;99.90;;;;;;5037378;28;20052;-78
2021/12/04 10:34:58;;;;;;;22.08;11.57;;;5.10;99.90;;;;;;4978694;28;20121;-78
2021/12/04 10:37:27;;;;;;;24.60;12.85;;;5.10;99.90;;;;;;4972366;28;20062;-78
2021/12/04 10:39:59;;;;;;;15.38;8.13;;;5.10;99.90;;;;;;5029252;28;20434;-78
2021/12/04 10:42:34;;;;;;;21.17;10.80;;;5.10;99.90;;;;;;5064389;28;20088;-78
2021/12/04 10:45:00;;;;;;;18.17;9.70;;;5.10;99.90;;;;;;5031694;28;20056;-78
2021/12/04 10:47:27;;;;;;;18.00;10.25;;;5.10;99.90;;;;;;5060667;28;20086;-78
2021/12/04 10:50:57;;;;;;;18.45;9.60;;;5.10;99.90;;;;;;5035492;28;20044;-77
2021/12/04 10:53:02;;;;;;;23.35;11.80;;;5.10;99.90;;;;;;5033740;28;20047;-78
2021/12/04 10:55:44;;;;;;;21.38;10.90;;;5.10;99.90;;;;;;5060753;28;20040;-78
2021/12/04 10:58:34;;;;;;;20.50;11.23;;;5.10;99.90;;;;;;5059468;28;20044;-78
2021/12/04 11:04:05;;;;;;;25.05;13.10;;;5.20;99.90;;;;;;5065280;28;20099;-78
2021/12/04 11:42:48;;;;;;;23.38;12.45;;;5.90;99.90;;;;;;5068861;28;20144;-78
2021/12/04 11:45:21;;;;;;;30.77;14.15;;;5.10;99.90;;;;;;5043850;28;20041;-78
2021/12/04 11:48:09;;;;;;;26.83;15.32;;;5.10;99.90;;;;;;5029086;28;20033;-79
2021/12/04 11:50:38;;;;;;;24.25;13.27;;;5.10;99.90;;;;;;5055963;28;20045;-78
2021/12/04 11:53:16;;;;;;;30.70;15.85;;;5.50;99.90;;;;;;5041713;28;20492;-78
2021/12/04 11:55:45;;;;;;;25.35;14.00;;;5.40;99.90;;;;;;5042025;28;20056;-78
2021/12/04 11:58:27;;;;;;;29.10;15.70;;;5.20;99.90;;;;;;5034404;28;20036;-78
2021/12/04 12:00:57;;;;;;;32.08;17.35;;;5.20;99.90;;;;;;5056707;28;20044;-78
2021/12/04 12:03:26;;;;;;;30.77;16.13;;;5.20;99.90;;;;;;5037776;28;20520;-78
2021/12/04 12:06:05;;;;;;;33.10;18.13;;;6.00;99.90;;;;;;5061762;28;20400;-78
2021/12/04 12:08:42;;;;;;;28.45;15.90;;;5.30;99.90;;;;;;5091442;28;20048;-79
2021/12/04 12:11:11;;;;;;;32.55;17.08;;;5.10;99.90;;;;;;5048662;28;20080;-78
2021/12/04 12:13:44;;;;;;;35.05;16.55;;;5.10;99.90;;;;;;5031225;28;20033;-78
2021/12/04 12:16:20;;;;;;;34.88;19.40;;;5.10;99.90;;;;;;5063638;28;20041;-79
2021/12/04 12:18:50;;;;;;;33.70;19.20;;;5.20;99.90;;;;;;5077290;28;20123;-79
2021/12/04 12:21:20;;;;;;;33.28;18.27;;;5.20;99.90;;;;;;5070002;28;20032;-79
2021/12/04 12:38:45;;;;;;;47.03;24.38;;;5.20;99.90;;;;;;5046818;28;20300;-78
2021/12/04 12:41:27;;;;;;;39.90;23.02;;;5.30;99.90;;;;;;5052973;28;20029;-78
2021/12/04 12:44:06;;;;;;;47.60;23.55;;;5.20;99.90;;;;;;5020333;28;20072;-78
2021/12/04 12:47:02;;;;;;;49.20;24.38;;;5.20;99.90;;;;;;5048166;28;20091;-78
2021/12/04 12:49:38;;;;;;;52.10;24.75;;;5.20;99.90;;;;;;5042680;28;20043;-79
2021/12/04 12:52:06;;;;;;;48.65;24.08;;;5.20;99.90;;;;;;5054129;28;20037;-79
2021/12/04 12:54:43;;;;;;;47.42;22.67;;;5.20;99.90;;;;;;5053210;28;20444;-79
2021/12/04 12:57:36;;;;;;;51.03;25.90;;;5.20;99.90;;;;;;5025522;28;20495;-79
2021/12/04 13:11:45;;;;;;;62.08;27.30;;;5.10;99.90;;;;;;5066326;28;20049;-79
2021/12/04 13:14:17;;;;;;;55.58;25.92;;;5.20;99.90;;;;;;5064269;28;20072;-79
2021/12/04 13:16:49;;;;;;;52.13;24.70;;;5.10;99.90;;;;;;5048351;28;20087;-79
2021/12/04 13:19:18;;;;;;;46.38;20.88;;;5.10;99.90;;;;;;5051165;28;20045;-78
2021/12/04 13:21:48;;;;;;;51.15;22.80;;;5.10;99.90;;;;;;5044231;28;20045;-79
2021/12/04 13:24:14;;;;;;;55.13;24.50;;;6.00;99.90;;;;;;5060645;28;20060;-79
2021/12/04 13:26:46;;;;;;;53.70;24.85;;;5.20;99.90;;;;;;5047964;28;20077;-79
2021/12/04 13:29:16;;;;;;;48.42;23.73;;;5.10;99.90;;;;;;5018662;28;20048;-77
2021/12/04 13:31:43;;;;;;;57.88;24.80;;;5.20;99.90;;;;;;5049514;28;20063;-79
2021/12/04 13:34:13;;;;;;;53.72;24.15;;;5.20;99.90;;;;;;5067042;28;20040;-79
2021/12/04 13:36:39;;;;;;;45.95;21.73;;;5.20;99.90;;;;;;5060751;28;20532;-79
2021/12/04 13:39:12;;;;;;;50.05;24.02;;;5.20;99.90;;;;;;5083966;28;20155;-79
2021/12/04 13:41:40;;;;;;;51.17;23.98;;;5.40;99.90;;;;;;5079701;28;20051;-78
2021/12/04 13:44:07;;;;;;;48.17;23.20;;;5.30;99.90;;;;;;5033496;28;20057;-79
2021/12/04 13:46:49;;;;;;;48.13;23.90;;;5.20;99.90;;;;;;5057736;28;20539;-79
2021/12/04 13:49:19;;;;;;;41.05;21.27;;;5.50;99.90;;;;;;5083283;28;20091;-79
2021/12/04 13:51:55;;;;;;;46.50;21.38;;;5.00;99.90;;;;;;5047178;28;20040;-79
2021/12/04 13:54:22;;;;;;;42.97;21.08;;;5.30;99.90;;;;;;5049649;28;20038;-79
2021/12/04 13:56:48;;;;;;;47.92;21.67;;;5.30;99.90;;;;;;5032125;28;20119;-78
2021/12/04 13:59:14;;;;;;;48.67;22.52;;;5.20;99.90;;;;;;5045730;28;20183;-79
2021/12/04 14:01:42;;;;;;;47.28;22.50;;;5.20;99.90;;;;;;5003526;28;20196;-79
2021/12/04 14:04:16;;;;;;;40.75;20.55;;;5.30;99.90;;;;;;5035277;28;20045;-79
2021/12/04 14:06:52;;;;;;;47.13;21.38;;;5.30;99.90;;;;;;5040471;28;20053;-79
2021/12/04 14:09:21;;;;;;;44.35;21.77;;;5.20;99.90;;;;;;5048572;28;20504;-79
2021/12/04 14:11:47;;;;;;;43.58;20.75;;;5.20;99.90;;;;;;5031917;28;20433;-79
2021/12/04 14:14:19;;;;;;;41.90;20.60;;;5.10;99.90;;;;;;5065280;28;20090;-79
2021/12/04 14:16:45;;;;;;;;;;;5.50;99.90;;;;;;5023300;28;20527;-79
2021/12/04 14:19:28;;;;;;;49.25;23.77;;;4.90;99.90;;;;;;5041775;28;19916;-79
2021/12/04 14:22:10;;;;;;;50.25;23.65;;;5.20;99.90;;;;;;5022847;28;20046;-79
2021/12/04 14:24:41;;;;;;;;;;;5.20;99.90;;;;;;5074289;28;20047;-79
2021/12/04 14:27:10;;;;;;;47.92;23.05;;;5.20;99.90;;;;;;5031690;28;19917;-79
2021/12/04 14:29:41;;;;;;;42.75;22.77;;;5.20;99.90;;;;;;5055274;28;20094;-79
2021/12/04 14:32:07;;;;;;;;;;;6.00;99.90;;;;;;5042798;28;20316;-79
2021/12/04 14:34:33;;;;;;;44.30;22.15;;;5.20;99.90;;;;;;5026719;28;19927;-78
2021/12/04 14:37:01;;;;;;;53.67;24.08;;;5.20;99.90;;;;;;5046223;28;20032;-79
2021/12/04 14:39:27;;;;;;;48.67;23.10;;;5.20;99.90;;;;;;5035451;28;20060;-79
2021/12/04 14:41:53;;;;;;;52.67;23.70;;;5.20;99.90;;;;;;5037166;28;20076;-78
2021/12/04 14:44:19;;;;;;;55.33;24.15;;;5.20;99.90;;;;;;5073782;28;20068;-77
2021/12/04 14:46:45;;;;;;;51.50;24.65;;;5.20;99.90;;;;;;5088782;28;20492;-78
2021/12/04 14:49:13;;;;;;;59.17;25.95;;;5.10;99.90;;;;;;5044076;28;20132;-78
2021/12/04 14:51:39;;;;;;;48.67;23.27;;;5.70;99.90;;;;;;5053125;28;20041;-78
2021/12/04 14:54:06;;;;;;;56.15;25.77;;;4.80;99.90;;;;;;5039753;28;20121;-78
2021/12/04 14:56:32;;;;;;;60.90;26.35;;;4.90;99.90;;;;;;5045053;28;20476;-79
2021/12/04 14:58:59;;;;;;;55.58;26.90;;;5.20;99.90;;;;;;5013929;28;20033;-79
2021/12/04 15:01:32;;;;;;;65.15;26.80;;;5.40;99.90;;;;;;5039235;28;20052;-79
2021/12/04 15:04:02;;;;;;;59.75;26.70;;;5.00;99.90;;;;;;5034043;28;20037;-80
2021/12/04 15:06:32;;;;;;;72.05;29.58;;;5.10;99.90;;;;;;5082546;28;20049;-80
2021/12/04 15:09:03;;;;;;;65.40;28.63;;;5.10;99.90;;;;;;5034184;28;20110;-80
2021/12/04 15:11:32;;;;;;;71.07;27.70;;;5.10;99.90;;;;;;5035777;28;20040;-80
2021/12/04 15:14:08;;;;;;;73.70;30.88;;;5.10;99.90;;;;;;5044363;28;20048;-80
2021/12/04 15:16:46;;;;;;;77.68;29.60;;;5.30;99.90;;;;;;5079633;28;20049;-79
2021/12/04 15:19:18;;;;;;;71.85;30.13;;;5.30;99.90;;;;;;5051341;28;20040;-80
2021/12/04 15:21:51;;;;;;;67.50;30.00;;;5.00;99.90;;;;;;5056639;28;20044;-80
2021/12/04 15:24:22;;;;;;;72.15;30.48;;;5.00;99.90;;;;;;5070393;28;20048;-80
2021/12/04 15:26:54;;;;;;;71.72;29.20;;;5.50;99.90;;;;;;5043407;28;20048;-80
2021/12/04 15:29:24;;;;;;;80.13;30.92;;;5.90;99.90;;;;;;5050399;28;20082;-80
2021/12/04 15:31:52;;;;;;;78.75;30.70;;;5.00;99.90;;;;;;5031413;28;20044;-80
2021/12/04 15:34:53;;;;;;;74.18;30.15;;;5.00;99.90;;;;;;5033625;28;20033;-80
2021/12/04 15:37:27;;;;;;;74.60;30.17;;;5.20;99.90;;;;;;5033014;28;20484;-80
2021/12/04 15:39:53;;;;;;;76.20;30.77;;;5.20;99.90;;;;;;5027128;28;20044;-80
2021/12/04 15:45:21;;;;;;;80.50;31.70;;;4.50;99.90;;;;;;5049540;28;20053;-80
2021/12/04 15:48:01;;;;;;;88.65;32.40;;;5.50;99.90;;;;;;5057736;28;20044;-80
2021/12/04 15:50:56;;;;;;;86.30;32.95;;;5.00;99.90;;;;;;5059733;28;20044;-78
2021/12/04 15:53:22;;;;;;;86.20;32.22;;;5.20;99.90;;;;;;5036909;28;20045;-78
2021/12/04 15:55:53;;;;;;;86.35;32.22;;;5.00;99.90;;;;;;5062467;28;20046;-79
2021/12/04 15:58:22;;;;;;;90.20;32.70;;;5.00;99.90;;;;;;5031183;28;20476;-79
2021/12/04 16:00:53;;;;;;;81.28;31.27;;;5.00;99.90;;;;;;5085543;28;20037;-78